Time;durP1;ratioP1;P1;durP2;ratioP2;P2;SDS_P1;SDS_P2;PMS_P1;PMS_P2;Temp;Humidity;BMP_temperature;BMP_pressure;BME280_temperature;BME280_humidity;BME280_pressure;Samples;Min_cycle;Max_cycle;Signal;HPM_P1;HPM_P2
2023/06/14 00:01:41;;;;;;;4.47;3.55;;;25.10;45.90;;;;;;5052788;28;20056;-58
2023/06/14 00:04:08;;;;;;;5.00;3.30;;;25.10;45.90;;;;;;5052984;28;20083;-58
2023/06/14 00:06:36;;;;;;;5.03;3.60;;;25.10;45.90;;;;;;5052929;28;20139;-57
2023/06/14 00:09:03;;;;;;;4.60;3.05;;;25.10;45.90;;;;;;5053365;28;20107;-58
2023/06/14 00:11:33;;;;;;;5.25;3.90;;;25.10;45.90;;;;;;5053202;28;20048;-58
2023/06/14 00:14:00;;;;;;;5.15;3.45;;;25.10;46.00;;;;;;5052882;28;20056;-58
2023/06/14 00:16:27;;;;;;;3.88;3.10;;;25.00;45.90;;;;;;5052090;28;20049;-58
2023/06/14 00:18:54;;;;;;;4.35;3.38;;;25.10;46.00;;;;;;5053047;28;20507;-58
2023/06/14 00:21:22;;;;;;;5.15;3.63;;;25.00;45.90;;;;;;5051784;28;20492;-57
2023/06/14 00:23:49;;;;;;;5.80;4.03;;;25.00;46.00;;;;;;5052753;28;20052;-57
2023/06/14 00:26:16;;;;;;;4.88;3.42;;;25.00;46.00;;;;;;5053505;28;20151;-58
2023/06/14 00:28:44;;;;;;;5.13;3.45;;;25.00;46.00;;;;;;5052989;28;20049;-58
2023/06/14 00:31:11;;;;;;;4.72;3.65;;;25.00;46.00;;;;;;5053072;28;20045;-58
2023/06/14 00:33:38;;;;;;;4.15;3.28;;;25.00;46.60;;;;;;5056548;28;20094;-58
2023/06/14 00:36:05;;;;;;;4.82;3.67;;;25.00;46.00;;;;;;5056908;28;20049;-57
2023/06/14 00:38:33;;;;;;;3.72;3.35;;;25.00;46.10;;;;;;5056770;28;20107;-58
2023/06/14 00:41:00;;;;;;;6.10;4.10;;;25.00;46.10;;;;;;5056303;28;20056;-57
2023/06/14 00:43:27;;;;;;;4.93;3.60;;;25.00;46.10;;;;;;5056444;28;20378;-58
2023/06/14 00:45:54;;;;;;;5.50;3.80;;;25.00;46.10;;;;;;5056601;28;20096;-58
2023/06/14 00:48:23;;;;;;;5.75;3.88;;;25.00;46.20;;;;;;5055839;28;20088;-58
2023/06/14 00:50:52;;;;;;;4.28;3.53;;;24.90;46.20;;;;;;5056557;28;20045;-58
2023/06/14 00:53:22;;;;;;;3.97;3.45;;;24.90;46.20;;;;;;5057080;28;20076;-58
2023/06/14 00:55:50;;;;;;;4.68;3.83;;;24.90;46.20;;;;;;5056058;28;20041;-58
2023/06/14 00:58:17;;;;;;;4.88;3.78;;;24.90;46.30;;;;;;5056436;28;20045;-58
2023/06/14 01:00:45;;;;;;;3.47;3.17;;;24.90;46.80;;;;;;5055202;28;20091;-58
2023/06/14 01:03:13;;;;;;;4.82;3.55;;;24.90;46.20;;;;;;5056059;28;20053;-57
2023/06/14 01:05:44;;;;;;;4.72;3.67;;;24.90;46.30;;;;;;5055345;28;20049;-57
2023/06/14 01:08:28;;;;;;;5.35;3.40;;;24.90;46.30;;;;;;5055686;28;20060;-58
2023/06/14 01:11:16;;;;;;;4.68;4.10;;;24.90;46.30;;;;;;5056363;28;20103;-58
2023/06/14 01:13:46;;;;;;;5.22;3.60;;;24.90;46.30;;;;;;5056144;28;20409;-58
2023/06/14 01:16:13;;;;;;;;;;;24.90;46.30;;;;;;5056447;28;20481;-58
2023/06/14 01:18:41;;;;;;;4.32;3.33;;;24.90;46.30;;;;;;5056356;28;19921;-58
2023/06/14 01:21:22;;;;;;;3.72;3.20;;;24.90;46.30;;;;;;5056298;28;20128;-60
2023/06/14 01:23:52;;;;;;;;;;;24.90;46.30;;;;;;5056525;28;20045;-58
2023/06/14 01:26:22;;;;;;;3.80;3.00;;;24.90;46.40;;;;;;5055599;28;20011;-58
2023/06/14 01:28:52;;;;;;;4.53;3.60;;;24.90;46.40;;;;;;5055977;28;20111;-58
2023/06/14 01:31:21;;;;;;;;;;;24.90;46.40;;;;;;5056126;28;20052;-58
2023/06/14 01:33:51;;;;;;;5.75;3.83;;;24.80;46.30;;;;;;5056095;28;19928;-57
2023/06/14 01:36:25;;;;;;;4.20;3.60;;;24.80;46.40;;;;;;5055717;28;20049;-58
2023/06/14 01:38:56;;;;;;;4.55;3.80;;;24.90;46.50;;;;;;5055486;28;20072;-58
2023/06/14 01:41:24;;;;;;;4.10;3.45;;;24.80;46.40;;;;;;5055664;28;20049;-57
2023/06/14 01:43:52;;;;;;;5.72;3.83;;;24.90;46.40;;;;;;5054435;28;20114;-58
2023/06/14 01:46:20;;;;;;;6.43;3.55;;;24.90;46.40;;;;;;5054524;28;20045;-58
2023/06/14 01:48:47;;;;;;;4.03;3.15;;;24.90;46.40;;;;;;5055484;28;20045;-57
2023/06/14 01:51:15;;;;;;;6.28;3.33;;;24.90;46.30;;;;;;5055700;28;20081;-58
2023/06/14 01:53:42;;;;;;;3.53;3.20;;;24.90;46.30;;;;;;5055426;28;20049;-58
2023/06/14 01:56:09;;;;;;;3.78;3.25;;;24.90;46.30;;;;;;5055490;28;20049;-58
2023/06/14 01:58:36;;;;;;;6.78;3.80;;;24.90;46.30;;;;;;5055355;28;20049;-58
2023/06/14 02:01:03;;;;;;;6.65;3.53;;;24.90;46.30;;;;;;5054251;28;20090;-57
2023/06/14 02:03:31;;;;;;;3.78;3.28;;;24.90;46.30;;;;;;5055063;28;20456;-58
2023/06/14 02:05:58;;;;;;;5.88;4.05;;;24.90;46.30;;;;;;5055436;28;20041;-58
2023/06/14 02:08:25;;;;;;;4.70;3.22;;;24.90;46.30;;;;;;5055199;28;20053;-58
2023/06/14 02:10:52;;;;;;;4.32;3.42;;;24.90;46.30;;;;;;5054845;28;20114;-57
2023/06/14 02:13:20;;;;;;;5.95;4.22;;;24.90;46.30;;;;;;5055387;28;20056;-58
2023/06/14 02:15:50;;;;;;;3.28;2.97;;;24.90;46.30;;;;;;5054097;28;20045;-57
2023/06/14 02:18:18;;;;;;;3.53;3.22;;;24.90;46.30;;;;;;5053760;28;20059;-59
2023/06/14 02:20:45;;;;;;;3.95;3.35;;;24.90;46.30;;;;;;5055074;28;20049;-58
2023/06/14 02:23:12;;;;;;;4.65;3.20;;;24.90;46.30;;;;;;5054572;28;20554;-58
2023/06/14 02:25:40;;;;;;;4.97;3.10;;;24.80;46.30;;;;;;5054541;28;20049;-58
2023/06/14 02:28:07;;;;;;;3.60;3.08;;;24.90;46.40;;;;;;5054768;28;20123;-58
2023/06/14 02:30:34;;;;;;;3.35;2.75;;;24.80;46.30;;;;;;5054783;28;20405;-57
2023/06/14 02:33:02;;;;;;;4.07;3.10;;;24.80;46.40;;;;;;5054557;28;20052;-58
2023/06/14 02:35:30;;;;;;;5.20;3.60;;;24.80;46.40;;;;;;5054305;28;20136;-58
2023/06/14 02:37:58;;;;;;;4.40;3.10;;;24.80;46.40;;;;;;5054478;28;20095;-58
2023/06/14 02:40:25;;;;;;;4.72;3.17;;;24.80;46.40;;;;;;5053475;28;20099;-58
2023/06/14 02:42:52;;;;;;;3.72;2.63;;;24.80;46.40;;;;;;5053536;28;20135;-57
2023/06/14 02:45:20;;;;;;;4.28;2.83;;;24.80;46.50;;;;;;5053345;28;20114;-58
2023/06/14 02:47:48;;;;;;;4.13;3.13;;;24.80;46.50;;;;;;5054725;28;20057;-57
2023/06/14 02:50:15;;;;;;;4.38;3.15;;;24.80;46.50;;;;;;5054235;28;20409;-58
2023/06/14 02:52:44;;;;;;;4.22;3.13;;;24.80;46.50;;;;;;5054391;28;20053;-58
2023/06/14 02:55:11;;;;;;;3.72;3.10;;;24.80;46.50;;;;;;5053624;28;20065;-58
2023/06/14 02:57:38;;;;;;;3.00;2.78;;;24.80;46.50;;;;;;5053820;28;20489;-58
2023/06/14 03:00:09;;;;;;;3.28;2.92;;;24.80;46.50;;;;;;5054034;28;20052;-57
2023/06/14 03:02:36;;;;;;;5.25;3.83;;;24.80;46.50;;;;;;5053722;28;20045;-58
2023/06/14 03:05:06;;;;;;;2.65;2.38;;;24.70;46.50;;;;;;5054335;28;20470;-58
2023/06/14 03:07:34;;;;;;;4.63;3.07;;;24.70;46.50;;;;;;5053869;28;20052;-58
2023/06/14 03:10:02;;;;;;;3.97;2.88;;;24.80;46.60;;;;;;5053971;28;20340;-57
2023/06/14 03:12:31;;;;;;;4.75;3.30;;;24.80;46.50;;;;;;5054088;28;20049;-58
2023/06/14 03:15:01;;;;;;;3.85;2.67;;;24.70;46.60;;;;;;5052569;28;20044;-58
2023/06/14 03:17:32;;;;;;;4.97;2.90;;;24.80;46.60;;;;;;5053840;28;20045;-58
2023/06/14 03:20:00;;;;;;;3.88;2.90;;;24.80;46.50;;;;;;5053454;28;20044;-58
2023/06/14 03:22:28;;;;;;;3.25;2.50;;;24.80;46.50;;;;;;5052692;28;20056;-57
2023/06/14 03:24:55;;;;;;;4.55;2.75;;;24.80;46.50;;;;;;5053175;28;20394;-57
2023/06/14 03:27:22;;;;;;;5.75;2.80;;;24.80;46.50;;;;;;5053697;28;20049;-58
2023/06/14 03:29:49;;;;;;;2.88;2.45;;;24.80;46.50;;;;;;5052045;28;20563;-58
2023/06/14 03:32:17;;;;;;;3.55;3.10;;;24.80;46.40;;;;;;5053783;28;20080;-58
2023/06/14 03:34:45;;;;;;;3.45;2.70;;;24.80;46.40;;;;;;5052623;28;20102;-57
2023/06/14 03:37:12;;;;;;;3.78;2.83;;;24.80;46.40;;;;;;5053264;28;20052;-57
2023/06/14 03:39:45;;;;;;;2.95;2.63;;;24.80;46.30;;;;;;5053192;28;20084;-57
2023/06/14 03:42:14;;;;;;;3.45;2.63;;;24.90;46.40;;;;;;5053354;28;20060;-58
2023/06/14 03:44:41;;;;;;;3.55;2.33;;;24.90;46.30;;;;;;5053191;28;20107;-57
2023/06/14 03:47:08;;;;;;;3.17;2.88;;;24.90;46.30;;;;;;5053563;28;20049;-57
2023/06/14 03:49:36;;;;;;;3.28;2.53;;;24.90;46.20;;;;;;5053022;28;20103;-58
2023/06/14 03:52:04;;;;;;;2.97;2.60;;;24.90;46.20;;;;;;5052143;28;20468;-58
2023/06/14 03:54:32;;;;;;;3.20;2.45;;;24.90;46.10;;;;;;5050829;28;20412;-57
2023/06/14 03:57:02;;;;;;;3.40;2.63;;;25.00;46.10;;;;;;5052413;28;20131;-57
2023/06/14 03:59:29;;;;;;;3.20;2.58;;;25.00;46.00;;;;;;5053442;28;20056;-58
2023/06/14 04:01:57;;;;;;;3.45;2.70;;;25.00;46.00;;;;;;5053089;28;20451;-58
2023/06/14 04:04:28;;;;;;;2.63;2.40;;;25.00;45.90;;;;;;5052556;28;20554;-58
2023/06/14 04:07:00;;;;;;;2.95;2.60;;;25.10;45.90;;;;;;5051907;28;20049;-58
2023/06/14 04:09:27;;;;;;;2.88;2.60;;;25.10;45.90;;;;;;5051062;28;20505;-58
2023/06/14 04:11:55;;;;;;;3.17;2.25;;;25.10;45.80;;;;;;5052585;28;20555;-58
2023/06/14 04:14:22;;;;;;;3.63;2.83;;;25.10;45.80;;;;;;5047738;28;20103;-58
2023/06/14 04:16:50;;;;;;;2.60;2.40;;;25.10;45.70;;;;;;5053142;28;20076;-58
2023/06/14 04:19:17;;;;;;;3.97;2.78;;;25.10;45.70;;;;;;5047918;28;20095;-57
2023/06/14 04:21:44;;;;;;;3.08;2.30;;;25.10;45.60;;;;;;5051860;28;20124;-57
2023/06/14 04:24:13;;;;;;;2.60;2.10;;;25.10;45.50;;;;;;5052385;28;20463;-57
2023/06/14 04:26:44;;;;;;;3.40;2.38;;;25.20;45.60;;;;;;5046840;28;20490;-58
2023/06/14 04:29:16;;;;;;;2.70;2.50;;;25.20;45.60;;;;;;5042825;28;20405;-58
2023/06/14 04:31:44;;;;;;;2.92;2.38;;;25.20;45.50;;;;;;5050829;28;20056;-57
2023/06/14 04:34:18;;;;;;;2.65;2.45;;;25.20;45.40;;;;;;5052394;28;20127;-57
2023/06/14 04:36:49;;;;;;;3.47;2.67;;;25.20;45.40;;;;;;5052380;28;20072;-58
2023/06/14 04:39:17;;;;;;;2.80;2.60;;;25.20;45.50;;;;;;5052843;28;20045;-58
2023/06/14 04:41:45;;;;;;;3.38;2.65;;;25.10;45.50;;;;;;5054538;28;20048;-58
2023/06/14 04:44:12;;;;;;;3.42;2.42;;;25.00;45.70;;;;;;5084533;28;20092;-57
2023/06/14 04:46:45;;;;;;;2.55;2.22;;;24.70;45.90;;;;;;5050153;28;20459;-58
2023/06/14 04:49:16;;;;;;;3.15;2.47;;;24.50;46.30;;;;;;5050756;28;20055;-57
2023/06/14 04:51:45;;;;;;;2.60;2.40;;;24.20;46.90;;;;;;5052361;28;20107;-58
2023/06/14 04:54:16;;;;;;;3.40;2.33;;;24.00;47.50;;;;;;5052127;28;20095;-58
2023/06/14 04:56:43;;;;;;;3.03;2.72;;;23.70;48.00;;;;;;5050250;28;20048;-59
2023/06/14 04:59:14;;;;;;;3.63;2.35;;;23.40;48.20;;;;;;5050880;28;20049;-58
2023/06/14 05:01:42;;;;;;;2.67;2.47;;;23.10;48.70;;;;;;5051534;28;20577;-58
2023/06/14 05:04:09;;;;;;;4.35;2.60;;;22.80;49.70;;;;;;5049880;28;20049;-57
2023/06/14 05:06:38;;;;;;;2.33;2.13;;;22.50;50.00;;;;;;5051795;28;20404;-58
2023/06/14 05:09:05;;;;;;;2.95;2.65;;;22.30;50.00;;;;;;5052033;28;20134;-58
2023/06/14 05:11:32;;;;;;;6.00;2.25;;;22.00;51.00;;;;;;5046704;28;20042;-57
2023/06/14 05:14:00;;;;;;;2.88;2.53;;;21.90;51.50;;;;;;5050543;28;20049;-57
2023/06/14 05:16:29;;;;;;;3.05;2.53;;;21.70;50.90;;;;;;5041540;28;20402;-57
2023/06/14 05:18:58;;;;;;;2.60;2.40;;;21.50;51.50;;;;;;5049839;28;20060;-62
2023/06/14 05:21:25;;;;;;;2.25;2.08;;;21.40;52.50;;;;;;5054757;28;20551;-63
2023/06/14 05:23:53;;;;;;;3.45;2.65;;;21.20;52.10;;;;;;5051460;28;20099;-64
2023/06/14 05:26:23;;;;;;;3.42;2.30;;;21.10;52.00;;;;;;5046534;28;20048;-63
2023/06/14 05:28:52;;;;;;;3.47;2.50;;;21.00;52.90;;;;;;5043705;28;20048;-65
2023/06/14 05:31:19;;;;;;;2.30;2.10;;;20.90;52.90;;;;;;5046509;28;20068;-65
2023/06/14 05:33:47;;;;;;;3.33;2.85;;;20.80;52.30;;;;;;5039704;28;20516;-63
2023/06/14 05:36:14;;;;;;;4.88;2.22;;;20.70;52.70;;;;;;5045493;28;20045;-64
2023/06/14 05:38:41;;;;;;;3.13;2.33;;;20.70;53.50;;;;;;5046544;28;20444;-64
2023/06/14 05:41:09;;;;;;;2.85;2.47;;;20.60;53.40;;;;;;5046720;28;20057;-63
2023/06/14 05:43:37;;;;;;;2.75;2.45;;;20.50;53.30;;;;;;5044778;28;20041;-63
2023/06/14 05:46:04;;;;;;;3.97;2.38;;;20.50;53.60;;;;;;5059171;28;20052;-63
2023/06/14 05:48:32;;;;;;;3.80;3.08;;;20.40;53.70;;;;;;5042750;28;20057;-64
2023/06/14 05:51:00;;;;;;;2.58;2.22;;;20.30;53.70;;;;;;5046675;28;20128;-64
2023/06/14 05:53:29;;;;;;;4.60;2.50;;;20.30;54.20;;;;;;5046232;28;20049;-64
2023/06/14 05:55:56;;;;;;;5.60;2.67;;;20.30;53.20;;;;;;5045800;28;20091;-64
2023/06/14 05:58:23;;;;;;;3.35;2.58;;;20.20;53.40;;;;;;5048841;28;20588;-65
2023/06/14 06:00:53;;;;;;;4.30;2.40;;;20.20;53.80;;;;;;5043110;28;20048;-63
2023/06/14 06:03:20;;;;;;;6.07;2.50;;;20.10;54.40;;;;;;5044722;28;20048;-63
2023/06/14 06:05:48;;;;;;;4.20;2.55;;;20.10;54.20;;;;;;5048574;28;20127;-64
2023/06/14 06:08:16;;;;;;;4.95;2.90;;;20.10;53.80;;;;;;5049316;28;20049;-63
2023/06/14 06:10:43;;;;;;;5.20;2.80;;;20.10;53.40;;;;;;5051204;28;20516;-63
2023/06/14 06:13:11;;;;;;;4.05;2.83;;;20.10;54.20;;;;;;5041358;28;20049;-62
2023/06/14 06:15:38;;;;;;;2.60;2.40;;;20.10;54.20;;;;;;5039650;28;20056;-62
2023/06/14 06:18:06;;;;;;;3.70;2.97;;;20.10;55.50;;;;;;5041248;28;20451;-63
2023/06/14 06:20:33;;;;;;;5.15;2.80;;;20.10;53.60;;;;;;5041304;28;20139;-63
2023/06/14 06:23:01;;;;;;;3.45;2.80;;;20.00;53.40;;;;;;5044979;28;20049;-64
2023/06/14 06:25:28;;;;;;;4.35;2.97;;;20.00;54.80;;;;;;5043423;28;20053;-63
2023/06/14 06:27:56;;;;;;;4.82;2.53;;;20.00;55.40;;;;;;5039618;28;20056;-63
2023/06/14 06:30:25;;;;;;;3.10;2.78;;;20.00;54.20;;;;;;5046022;28;20056;-62
2023/06/14 06:32:53;;;;;;;8.48;3.03;;;20.00;53.50;;;;;;5043674;28;20516;-63
2023/06/14 06:35:20;;;;;;;2.67;2.15;;;20.00;54.60;;;;;;5037944;28;20080;-63
2023/06/14 06:37:47;;;;;;;4.55;3.10;;;20.00;54.90;;;;;;5041870;28;20175;-63
2023/06/14 06:40:16;;;;;;;6.50;2.35;;;20.00;55.30;;;;;;5047893;28;20128;-63
2023/06/14 06:42:44;;;;;;;5.82;2.67;;;20.00;54.40;;;;;;5044142;28;20090;-63
2023/06/14 06:45:11;;;;;;;3.88;2.63;;;20.00;53.90;;;;;;5046057;28;20049;-63
2023/06/14 06:47:39;;;;;;;3.35;2.70;;;20.00;55.30;;;;;;5044988;28;20053;-63
2023/06/14 06:50:07;;;;;;;3.05;2.25;;;20.00;55.00;;;;;;5042795;28;20493;-63
2023/06/14 06:52:35;;;;;;;4.32;2.75;;;20.00;55.00;;;;;;5039805;28;20049;-63
2023/06/14 06:55:03;;;;;;;5.25;2.53;;;20.00;54.30;;;;;;5042621;28;20273;-64
2023/06/14 06:57:30;;;;;;;5.53;3.22;;;20.00;54.70;;;;;;5046503;28;20155;-63
2023/06/14 06:59:57;;;;;;;5.22;2.85;;;20.00;55.20;;;;;;5043699;28;20444;-63
2023/06/14 07:02:25;;;;;;;4.45;3.00;;;20.10;55.10;;;;;;5042664;28;20049;-63
2023/06/14 07:04:52;;;;;;;4.57;3.13;;;20.10;54.50;;;;;;5045390;28;20111;-62
2023/06/14 07:07:20;;;;;;;3.08;2.72;;;20.10;55.00;;;;;;5044164;28;20049;-62
2023/06/14 07:09:47;;;;;;;7.13;3.60;;;20.10;55.20;;;;;;5046554;28;20079;-62
2023/06/14 07:12:14;;;;;;;6.10;3.10;;;20.10;54.50;;;;;;5042747;28;20049;-62
2023/06/14 07:14:41;;;;;;;12.65;3.67;;;20.20;54.60;;;;;;5043633;28;20110;-62
2023/06/14 07:17:09;;;;;;;6.57;4.07;;;20.20;55.60;;;;;;5037729;28;20064;-62
2023/06/14 07:19:37;;;;;;;5.00;3.38;;;20.20;55.30;;;;;;5042289;28;20090;-61
2023/06/14 07:22:04;;;;;;;7.13;3.53;;;20.30;54.50;;;;;;5038832;28;20074;-62
2023/06/14 07:24:32;;;;;;;8.57;3.08;;;20.30;55.20;;;;;;5035145;28;20057;-62
2023/06/14 07:27:00;;;;;;;7.43;2.75;;;20.30;55.40;;;;;;5034577;28;20110;-63
2023/06/14 07:29:27;;;;;;;6.45;2.92;;;20.30;54.30;;;;;;5033954;28;20052;-63
2023/06/14 07:31:54;;;;;;;6.18;2.80;;;20.40;54.60;;;;;;5044135;28;20057;-62
2023/06/14 07:34:21;;;;;;;4.68;3.20;;;20.40;55.30;;;;;;5046890;28;20041;-62
2023/06/14 07:36:49;;;;;;;5.82;2.72;;;20.50;54.70;;;;;;5043936;28;20076;-61
2023/06/14 07:39:16;;;;;;;3.72;3.10;;;20.50;54.20;;;;;;5028489;28;20045;-63
2023/06/14 07:41:43;;;;;;;7.40;2.83;;;20.50;55.20;;;;;;5045968;28;20079;-63
2023/06/14 07:44:12;;;;;;;3.08;2.78;;;20.60;55.40;;;;;;5041008;28;20049;-64
2023/06/14 07:46:40;;;;;;;3.17;2.50;;;20.70;54.50;;;;;;5045155;28;20392;-62
2023/06/14 07:49:07;;;;;;;5.55;3.20;;;20.70;54.20;;;;;;5047122;28;20106;-62
2023/06/14 07:51:35;;;;;;;3.80;2.88;;;20.80;54.20;;;;;;5045843;28;20405;-63
2023/06/14 07:54:03;;;;;;;2.95;2.30;;;20.80;53.80;;;;;;5050541;28;20059;-63
2023/06/14 07:56:31;;;;;;;5.15;2.47;;;20.90;53.70;;;;;;5039506;28;20084;-63
2023/06/14 07:58:58;;;;;;;7.80;3.28;;;20.90;53.80;;;;;;5043606;28;20270;-63
2023/06/14 08:01:25;;;;;;;7.80;2.97;;;20.90;53.70;;;;;;5037819;28;20497;-64
2023/06/14 08:03:53;;;;;;;3.38;2.35;;;20.90;53.30;;;;;;5043664;28;20053;-62
2023/06/14 08:06:20;;;;;;;4.90;2.60;;;20.90;53.90;;;;;;5039889;28;20497;-64
2023/06/14 08:08:49;;;;;;;3.53;2.58;;;20.90;54.00;;;;;;5042513;28;20048;-62
2023/06/14 08:11:16;;;;;;;2.30;2.05;;;20.80;53.40;;;;;;5045690;28;20102;-63
2023/06/14 08:13:43;;;;;;;3.45;2.47;;;20.80;53.70;;;;;;5040365;28;20094;-62
2023/06/14 08:16:11;;;;;;;5.82;3.08;;;20.80;53.90;;;;;;5039853;28;20444;-62
2023/06/14 08:18:38;;;;;;;5.13;2.63;;;20.80;53.50;;;;;;5045001;28;20048;-61
2023/06/14 08:21:07;;;;;;;2.47;1.92;;;20.80;53.30;;;;;;5039941;28;20122;-64
2023/06/14 08:23:34;;;;;;;2.40;2.20;;;20.70;53.40;;;;;;5040685;28;20490;-63
2023/06/14 08:26:03;;;;;;;2.85;2.35;;;20.70;53.60;;;;;;5042452;28;20061;-63
2023/06/14 08:28:31;;;;;;;3.60;2.40;;;20.70;53.40;;;;;;5039438;28;20049;-63
2023/06/14 08:30:58;;;;;;;3.22;2.50;;;20.70;54.00;;;;;;5043800;28;20421;-63
2023/06/14 08:33:26;;;;;;;4.25;2.55;;;20.60;54.10;;;;;;5046449;28;20040;-61
2023/06/14 08:35:54;;;;;;;3.42;2.40;;;20.60;53.80;;;;;;5042427;28;20451;-65
2023/06/14 08:38:21;;;;;;;3.13;2.13;;;20.60;53.80;;;;;;5046241;28;20049;-64
2023/06/14 08:40:51;;;;;;;3.33;1.90;;;20.60;54.20;;;;;;5042497;28;20053;-63
2023/06/14 08:43:18;;;;;;;3.85;2.13;;;20.50;54.10;;;;;;5044129;28;20049;-64
2023/06/14 08:45:48;;;;;;;2.97;2.13;;;20.50;53.70;;;;;;5041531;28;20053;-61
2023/06/14 08:48:17;;;;;;;3.95;2.38;;;20.50;53.80;;;;;;5042411;28;20049;-64
2023/06/14 08:50:46;;;;;;;5.38;2.15;;;20.50;54.10;;;;;;5042325;28;20067;-64
2023/06/14 08:53:20;;;;;;;6.80;2.67;;;20.50;53.60;;;;;;5049846;28;20067;-61
2023/06/14 08:55:47;;;;;;;3.83;2.15;;;20.50;53.60;;;;;;5045020;28;20069;-62
2023/06/14 08:58:15;;;;;;;3.65;2.00;;;20.50;54.10;;;;;;5041100;28;20064;-62
2023/06/14 09:00:43;;;;;;;3.45;2.38;;;20.60;54.20;;;;;;5049111;28;20068;-62
2023/06/14 09:03:13;;;;;;;2.28;2.05;;;20.60;53.70;;;;;;5045927;28;20140;-63
2023/06/14 09:05:41;;;;;;;;;;;20.60;53.50;;;;;;5051671;28;20144;-64
2023/06/14 09:08:08;;;;;;;3.20;2.25;;;20.60;54.20;;;;;;5046678;28;20320;-63
2023/06/14 09:10:37;;;;;;;3.03;2.20;;;20.60;53.50;;;;;;5048494;28;20536;-66
2023/06/14 09:13:05;;;;;;;2.83;2.35;;;20.70;53.40;;;;;;5050814;28;20045;-64
2023/06/14 09:15:32;;;;;;;4.13;2.25;;;20.70;53.90;;;;;;5049877;28;20080;-63
2023/06/14 09:18:04;;;;;;;5.55;2.42;;;20.70;54.10;;;;;;5057263;28;20046;-63
2023/06/14 09:20:32;;;;;;;5.05;2.03;;;20.70;53.40;;;;;;5046874;28;20128;-66
2023/06/14 09:23:00;;;;;;;4.65;2.42;;;20.70;53.70;;;;;;5041377;28;20052;-64
2023/06/14 09:25:27;;;;;;;2.80;2.47;;;20.70;54.20;;;;;;5047259;28;20052;-63
2023/06/14 09:28:08;;;;;;;4.03;2.42;;;20.80;53.70;;;;;;5044420;28;20070;-65
2023/06/14 09:30:39;;;;;;;4.60;2.30;;;20.80;53.50;;;;;;5046015;28;20045;-64
2023/06/14 09:33:08;;;;;;;5.05;2.10;;;20.80;53.70;;;;;;5040346;28;20053;-63
2023/06/14 09:35:35;;;;;;;2.90;2.30;;;20.80;53.90;;;;;;5045663;28;20136;-64
2023/06/14 09:38:03;;;;;;;3.47;2.17;;;20.80;53.60;;;;;;5042531;28;20041;-65
2023/06/14 09:40:35;;;;;;;2.25;2.05;;;20.80;53.70;;;;;;5040319;28;20353;-66
2023/06/14 09:43:09;;;;;;;3.13;2.50;;;20.80;53.10;;;;;;5045293;28;20048;-65
2023/06/14 09:45:45;;;;;;;3.45;2.17;;;20.80;53.40;;;;;;5045679;28;20458;-65
2023/06/14 09:48:17;;;;;;;3.40;2.50;;;20.80;53.40;;;;;;5041925;28;20052;-63
2023/06/14 09:50:49;;;;;;;2.47;2.13;;;20.80;53.50;;;;;;5048296;28;20110;-65
2023/06/14 09:53:21;;;;;;;3.67;2.67;;;20.80;53.30;;;;;;5046539;28;21661;-63
2023/06/14 09:55:50;;;;;;;5.00;2.15;;;20.80;53.50;;;;;;5046235;28;20044;-63
2023/06/14 09:58:23;;;;;;;3.77;2.57;;;20.80;53.50;;;;;;5046622;28;20055;-63
2023/06/14 10:00:51;;;;;;;4.68;2.13;;;20.90;53.10;;;;;;5046040;28;20301;-67
2023/06/14 10:03:28;;;;;;;6.18;2.78;;;20.80;52.90;;;;;;5047381;28;20638;-66
2023/06/14 10:06:08;;;;;;;2.92;2.63;;;20.80;53.30;;;;;;5048241;28;20595;-65
2023/06/14 10:08:38;;;;;;;3.28;2.33;;;20.80;53.20;;;;;;5046248;28;20448;-66
2023/06/14 10:11:05;;;;;;;2.53;2.15;;;20.80;53.10;;;;;;5049385;28;20053;-64
2023/06/14 10:13:33;;;;;;;3.63;2.17;;;20.80;53.00;;;;;;5041908;28;20521;-64
2023/06/14 10:16:12;;;;;;;2.38;2.17;;;20.90;53.30;;;;;;5045188;28;20192;-67
2023/06/14 10:18:51;;;;;;;3.03;2.50;;;20.90;53.00;;;;;;5047894;28;20056;-67
2023/06/14 10:21:45;;;;;;;3.47;2.13;;;20.80;52.70;;;;;;5042112;28;20047;-64
2023/06/14 10:24:15;;;;;;;2.03;1.75;;;20.80;53.00;;;;;;5040866;28;20512;-64
2023/06/14 10:26:56;;;;;;;3.72;2.47;;;20.70;52.90;;;;;;5044796;28;20060;-67
2023/06/14 10:29:32;;;;;;;8.82;2.50;;;20.70;52.70;;;;;;5043723;28;20045;-67
2023/06/14 10:32:00;;;;;;;4.07;2.30;;;20.60;52.80;;;;;;5043289;28;20053;-67
2023/06/14 10:34:29;;;;;;;3.60;2.25;;;20.60;53.30;;;;;;5043913;28;20048;-67
2023/06/14 10:37:06;;;;;;;2.35;1.98;;;20.60;53.00;;;;;;5040433;28;20114;-66
2023/06/14 10:39:42;;;;;;;3.10;2.80;;;20.50;52.90;;;;;;5038686;28;20045;-66
2023/06/14 10:42:10;;;;;;;2.20;2.00;;;20.60;53.10;;;;;;5039922;28;20080;-65
2023/06/14 10:44:40;;;;;;;2.97;2.35;;;20.60;53.00;;;;;;5040965;28;20044;-66
2023/06/14 10:47:32;;;;;;;2.88;2.60;;;20.60;52.60;;;;;;5043405;28;20754;-66
2023/06/14 10:50:07;;;;;;;4.18;2.42;;;20.60;52.90;;;;;;5038814;28;20106;-65
2023/06/14 10:52:38;;;;;;;5.75;2.70;;;20.60;52.80;;;;;;5044474;28;20563;-65
2023/06/14 10:55:18;;;;;;;4.50;2.75;;;20.50;52.50;;;;;;5046204;28;20524;-65
2023/06/14 10:57:58;;;;;;;2.30;2.10;;;20.50;52.40;;;;;;5045745;28;20120;-66
2023/06/14 11:00:30;;;;;;;2.58;2.30;;;20.50;53.10;;;;;;5072303;28;20044;-66
2023/06/14 11:03:37;;;;;;;3.03;2.40;;;20.50;53.30;;;;;;5040138;28;20045;-64
2023/06/14 11:06:13;;;;;;;4.65;2.90;;;20.60;53.20;;;;;;5038986;28;20069;-64
2023/06/14 11:09:12;;;;;;;4.90;3.05;;;20.60;53.60;;;;;;5074604;28;20044;-63
2023/06/14 11:11:43;;;;;;;4.70;2.30;;;20.70;53.50;;;;;;5040597;28;20456;-64
2023/06/14 11:14:11;;;;;;;3.80;2.58;;;20.70;53.40;;;;;;5040763;28;20118;-65
2023/06/14 11:16:38;;;;;;;3.35;2.45;;;20.70;53.70;;;;;;5035906;28;20041;-64
2023/06/14 11:19:05;;;;;;;4.93;2.63;;;20.70;53.40;;;;;;5045897;28;20071;-65
2023/06/14 11:21:34;;;;;;;3.53;2.47;;;20.80;53.00;;;;;;5039862;28;20051;-65
2023/06/14 11:24:02;;;;;;;7.28;2.70;;;20.80;53.10;;;;;;5043423;28;20044;-65
2023/06/14 11:26:31;;;;;;;2.92;2.22;;;20.80;52.70;;;;;;5041883;28;20127;-63
2023/06/14 11:28:59;;;;;;;2.97;2.53;;;20.80;52.30;;;;;;5044618;28;20102;-64
2023/06/14 11:31:28;;;;;;;4.03;2.63;;;20.80;52.70;;;;;;5049165;28;20041;-63
2023/06/14 11:33:57;;;;;;;2.83;2.17;;;20.70;53.00;;;;;;5045822;28;20094;-64
2023/06/14 11:36:32;;;;;;;2.67;2.10;;;20.70;53.00;;;;;;5043145;28;20044;-65
2023/06/14 11:39:05;;;;;;;2.25;2.00;;;20.70;53.20;;;;;;5041279;28;20057;-63
2023/06/14 11:41:44;;;;;;;2.95;2.20;;;20.80;54.10;;;;;;5050654;28;20490;-63
2023/06/14 11:44:12;;;;;;;5.47;2.55;;;20.80;53.60;;;;;;5044470;28;20049;-63
2023/06/14 11:46:40;;;;;;;6.80;2.85;;;20.80;53.60;;;;;;5039919;28;20520;-64
2023/06/14 11:49:08;;;;;;;4.32;2.22;;;20.80;52.90;;;;;;5043679;28;20079;-64
2023/06/14 11:51:36;;;;;;;3.13;2.35;;;20.90;52.10;;;;;;5044005;28;20515;-63
2023/06/14 11:54:05;;;;;;;3.35;2.30;;;20.90;52.10;;;;;;5043485;28;21347;-63
2023/06/14 11:56:33;;;;;;;4.22;2.40;;;20.90;52.40;;;;;;5042909;28;20055;-63
2023/06/14 11:59:02;;;;;;;4.82;2.63;;;20.90;52.30;;;;;;5047182;28;20056;-64
2023/06/14 12:01:30;;;;;;;2.58;2.17;;;20.90;52.50;;;;;;5047288;28;20040;-63
2023/06/14 12:03:59;;;;;;;4.05;2.30;;;20.90;52.50;;;;;;5044318;28;20057;-63
2023/06/14 12:06:32;;;;;;;2.78;2.03;;;20.90;52.60;;;;;;5046679;28;20049;-63
2023/06/14 12:09:04;;;;;;;4.32;2.25;;;20.90;52.40;;;;;;5070305;28;20468;-64
2023/06/14 12:11:35;;;;;;;2.28;2.03;;;20.90;52.00;;;;;;5045306;28;20067;-63
2023/06/14 12:14:05;;;;;;;3.65;2.20;;;20.90;51.90;;;;;;5039728;28;20051;-62
2023/06/14 12:16:35;;;;;;;3.15;2.30;;;21.00;51.40;;;;;;5039590;28;20056;-63
2023/06/14 12:19:16;;;;;;;4.80;2.00;;;21.00;51.50;;;;;;5040544;28;20060;-62
2023/06/14 12:21:48;;;;;;;2.75;2.22;;;20.90;51.50;;;;;;5043207;28;20051;-62
2023/06/14 12:24:16;;;;;;;2.75;2.45;;;20.90;51.50;;;;;;5041871;28;20470;-63
2023/06/14 12:26:44;;;;;;;3.13;2.08;;;20.90;51.80;;;;;;5039641;28;20057;-63
2023/06/14 12:29:12;;;;;;;4.45;2.45;;;20.90;51.90;;;;;;5046751;28;20386;-63
2023/06/14 12:31:41;;;;;;;3.20;2.33;;;20.90;52.40;;;;;;5043293;28;20068;-62
2023/06/14 12:34:08;;;;;;;6.40;2.50;;;20.80;51.90;;;;;;5042110;28;20056;-62
2023/06/14 12:36:41;;;;;;;7.75;2.85;;;20.80;52.00;;;;;;5045767;28;20088;-62
2023/06/14 12:39:09;;;;;;;6.72;2.33;;;20.80;52.20;;;;;;5045455;28;20053;-64
2023/06/14 12:41:41;;;;;;;2.85;2.25;;;20.80;52.10;;;;;;5046558;28;20053;-63
2023/06/14 12:44:10;;;;;;;5.88;2.60;;;20.80;51.40;;;;;;5048842;28;20052;-63
2023/06/14 12:46:39;;;;;;;4.97;2.53;;;20.80;51.10;;;;;;5042213;28;20049;-62
2023/06/14 12:49:08;;;;;;;4.80;2.73;;;20.80;51.60;;;;;;5041872;28;20080;-63
2023/06/14 12:51:36;;;;;;;5.25;2.33;;;20.70;52.00;;;;;;5042484;28;20306;-63
2023/06/14 12:54:03;;;;;;;3.80;2.30;;;20.70;52.00;;;;;;5043115;28;20057;-63
2023/06/14 12:56:30;;;;;;;2.55;2.22;;;20.70;51.70;;;;;;5045382;28;20393;-62
2023/06/14 12:58:59;;;;;;;3.58;2.35;;;20.70;51.70;;;;;;5051753;28;20416;-63